Time;durP1;ratioP1;P1;durP2;ratioP2;P2;SDS_P1;SDS_P2;PMS_P1;PMS_P2;Temp;Humidity;BMP_temperature;BMP_pressure;BME280_temperature;BME280_humidity;BME280_pressure;Samples;Min_cycle;Max_cycle;Signal;HPM_P1;HPM_P2
2023/07/23 00:00:10;;;;;;;;;;;18.80;99.90;;;;;;7341029;19;110323;-78
2023/07/23 00:02:37;;;;;;;;;;;18.80;99.90;;;;;;7332727;19;111103;-79
2023/07/23 00:05:05;;;;;;;;;;;18.80;99.90;;;;;;7336153;19;109299;-78
2023/07/23 00:07:32;;;;;;;;;;;18.80;99.90;;;;;;7344169;19;110214;-78
2023/07/23 00:10:03;;;;;;;;;;;18.70;99.90;;;;;;7346228;19;108451;-78
2023/07/23 00:12:30;;;;;;;;;;;18.70;99.90;;;;;;7346072;19;109136;-78
2023/07/23 00:14:57;;;;;;;;;;;18.70;99.90;;;;;;7346909;19;110806;-78
2023/07/23 00:17:28;;;;;;;;;;;18.70;99.90;;;;;;7343355;19;109133;-78
2023/07/23 00:19:55;;;;;;;;;;;18.70;99.90;;;;;;7350391;19;110914;-78
2023/07/23 00:22:22;;;;;;;;;;;18.70;99.90;;;;;;7343588;19;110034;-79
2023/07/23 00:24:56;;;;;;;;;;;18.70;99.90;;;;;;7343395;19;109486;-78
2023/07/23 00:27:23;;;;;;;;;;;18.70;99.90;;;;;;7339884;19;109161;-78
2023/07/23 00:29:50;;;;;;;;;;;18.70;99.90;;;;;;7341691;19;108965;-78
2023/07/23 00:32:18;;;;;;;;;;;18.70;99.90;;;;;;7339663;19;108970;-78
2023/07/23 00:34:45;;;;;;;;;;;18.70;99.90;;;;;;7338259;19;110620;-78
2023/07/23 00:37:12;;;;;;;;;;;18.60;99.90;;;;;;7339659;19;108556;-78
2023/07/23 00:39:39;;;;;;;;;;;18.60;99.90;;;;;;7338101;19;110428;-78
2023/07/23 00:42:06;;;;;;;;;;;18.70;99.90;;;;;;7348184;19;110079;-86
2023/07/23 00:44:34;;;;;;;;;;;18.60;99.90;;;;;;7335008;19;108658;-86
2023/07/23 00:47:02;;;;;;;;;;;18.60;99.90;;;;;;7329922;19;109498;-86
2023/07/23 00:49:30;;;;;;;;;;;18.60;99.90;;;;;;7327577;19;115140;-86
2023/07/23 00:51:57;;;;;;;;;;;18.60;99.90;;;;;;7325075;19;109156;-86
2023/07/23 00:54:24;;;;;;;;;;;18.70;99.90;;;;;;7328412;19;110527;-86
2023/07/23 00:56:52;;;;;;;;;;;18.60;99.90;;;;;;7328838;19;112237;-86
2023/07/23 00:59:19;;;;;;;;;;;18.60;99.90;;;;;;7324226;19;109468;-86
2023/07/23 01:01:48;;;;;;;;;;;18.60;99.90;;;;;;7336115;19;109657;-86
2023/07/23 01:04:15;;;;;;;;;;;18.60;99.90;;;;;;7323274;19;111532;-86
2023/07/23 01:06:44;;;;;;;;;;;18.60;99.90;;;;;;7328886;19;109016;-86
2023/07/23 01:09:11;;;;;;;;;;;18.60;99.90;;;;;;7324701;19;110896;-86
2023/07/23 01:11:39;;;;;;;;;;;18.50;99.90;;;;;;7331155;19;109701;-86
2023/07/23 01:14:08;;;;;;;;;;;18.60;99.90;;;;;;7327021;19;111810;-86
2023/07/23 01:16:36;;;;;;;;;;;18.50;99.90;;;;;;7325271;19;109108;-86
2023/07/23 01:19:03;;;;;;;;;;;18.50;99.90;;;;;;7325504;19;112496;-86
2023/07/23 01:21:31;;;;;;;;;;;18.50;99.90;;;;;;7327684;19;110066;-85
2023/07/23 01:23:58;;;;;;;;;;;18.50;99.90;;;;;;7336883;19;109228;-86
2023/07/23 01:26:25;;;;;;;;;;;18.50;99.90;;;;;;7323849;19;112644;-85
2023/07/23 01:28:52;;;;;;;;;;;18.50;99.90;;;;;;7327233;19;109468;-87
2023/07/23 01:31:19;;;;;;;;;;;18.50;99.90;;;;;;7322072;19;111853;-85
2023/07/23 01:33:47;;;;;;;;;;;18.50;99.90;;;;;;7328419;19;111448;-85
2023/07/23 01:36:14;;;;;;;;;;;18.50;99.90;;;;;;7324882;19;109790;-85
2023/07/23 01:38:42;;;;;;;;;;;18.50;99.90;;;;;;7330133;19;108940;-85
2023/07/23 01:41:09;;;;;;;;;;;18.50;99.90;;;;;;7325942;19;109897;-85
2023/07/23 01:43:37;;;;;;;;;;;18.50;99.90;;;;;;7326215;19;108968;-85
2023/07/23 01:46:04;;;;;;;;;;;18.50;99.90;;;;;;7328331;19;108876;-87
2023/07/23 01:48:31;;;;;;;;;;;18.50;99.90;;;;;;7324068;19;109235;-87
2023/07/23 01:50:58;;;;;;;;;;;18.50;99.90;;;;;;7329338;19;111907;-87
2023/07/23 01:53:25;;;;;;;;;;;18.50;99.90;;;;;;7322963;19;110798;-87
2023/07/23 01:55:53;;;;;;;;;;;18.50;99.90;;;;;;7328216;19;109321;-87
2023/07/23 01:58:20;;;;;;;;;;;18.50;99.90;;;;;;7324683;19;112044;-86
2023/07/23 02:00:47;;;;;;;;;;;18.50;99.90;;;;;;7322767;19;109890;-85
2023/07/23 02:03:14;;;;;;;;;;;18.50;99.90;;;;;;7328896;19;108754;-86
2023/07/23 02:05:44;;;;;;;;;;;18.50;99.90;;;;;;7327914;19;108786;-85
2023/07/23 02:08:11;;;;;;;;;;;18.50;99.90;;;;;;7331775;19;110000;-85
2023/07/23 02:10:38;;;;;;;;;;;18.50;99.90;;;;;;7324657;19;109691;-86
2023/07/23 02:13:05;;;;;;;;;;;18.50;99.90;;;;;;7324911;19;112008;-86
2023/07/23 02:15:32;;;;;;;;;;;18.50;99.90;;;;;;7322999;19;109213;-86
2023/07/23 02:18:00;;;;;;;;;;;18.50;99.90;;;;;;7323476;19;109303;-87
2023/07/23 02:20:27;;;;;;;;;;;18.60;99.90;;;;;;7328454;19;110351;-88
2023/07/23 02:22:54;;;;;;;;;;;18.50;99.90;;;;;;7322283;19;109183;-86
2023/07/23 02:25:21;;;;;;;;;;;18.50;99.90;;;;;;7328349;19;109439;-86
2023/07/23 02:27:48;;;;;;;;;;;18.50;99.90;;;;;;7326922;19;110693;-86
2023/07/23 02:30:15;;;;;;;;;;;18.60;99.90;;;;;;7330142;19;109655;-85
2023/07/23 02:32:42;;;;;;;;;;;18.60;99.90;;;;;;7322671;19;110671;-86
2023/07/23 02:35:09;;;;;;;;;;;18.60;99.90;;;;;;7326186;19;110861;-86
2023/07/23 02:37:36;;;;;;;;;;;18.60;99.90;;;;;;7328193;19;111095;-86
2023/07/23 02:40:04;;;;;;;;;;;18.60;99.90;;;;;;7325339;19;113669;-85
2023/07/23 02:42:34;;;;;;;;;;;18.60;99.90;;;;;;7324448;19;111043;-85
2023/07/23 02:45:01;;;;;;;;;;;18.60;99.90;;;;;;7328328;19;111437;-85
2023/07/23 02:47:28;;;;;;;;;;;18.60;99.90;;;;;;7324744;19;110490;-86
2023/07/23 02:49:55;;;;;;;;;;;18.60;99.90;;;;;;7318203;19;108345;-86
2023/07/23 02:52:23;;;;;;;;;;;18.60;99.90;;;;;;7330277;19;109979;-85
2023/07/23 02:54:53;;;;;;;;;;;18.60;99.90;;;;;;7330908;19;109055;-85
2023/07/23 02:57:20;;;;;;;;;;;18.60;99.90;;;;;;7332652;19;110080;-85
2023/07/23 02:59:52;;;;;;;;;;;18.60;99.90;;;;;;7330869;19;109688;-86
2023/07/23 03:02:19;;;;;;;;;;;18.60;99.90;;;;;;7333753;19;108943;-85
2023/07/23 03:04:46;;;;;;;;;;;18.60;99.90;;;;;;7330637;19;111189;-86
2023/07/23 03:07:13;;;;;;;;;;;18.60;99.90;;;;;;7332110;19;111007;-85
2023/07/23 03:09:40;;;;;;;;;;;18.60;99.90;;;;;;7331385;19;109216;-85
2023/07/23 03:12:09;;;;;;;;;;;18.60;99.90;;;;;;7338227;19;109985;-85
2023/07/23 03:14:37;;;;;;;;;;;18.60;99.90;;;;;;7332076;19;110303;-85
2023/07/23 03:17:07;;;;;;;;;;;18.60;99.90;;;;;;7332297;19;110182;-85
2023/07/23 03:19:34;;;;;;;;;;;18.60;99.90;;;;;;7331036;19;109930;-86
2023/07/23 03:22:01;;;;;;;;;;;18.60;99.90;;;;;;7327583;19;109169;-86
2023/07/23 03:24:29;;;;;;;;;;;18.70;99.90;;;;;;7328052;19;111763;-86
2023/07/23 03:26:56;;;;;;;;;;;18.70;99.90;;;;;;7328937;19;109774;-86
2023/07/23 03:29:23;;;;;;;;;;;18.70;99.90;;;;;;7330633;19;109570;-86
2023/07/23 03:31:50;;;;;;;;;;;18.70;99.90;;;;;;7332665;19;109847;-85
2023/07/23 03:34:17;;;;;;;;;;;18.70;99.90;;;;;;7333494;19;110257;-86
2023/07/23 03:36:44;;;;;;;;;;;18.60;99.90;;;;;;7330915;19;109353;-86
2023/07/23 03:39:16;;;;;;;;;;;18.60;99.90;;;;;;7325392;19;111153;-86
2023/07/23 03:41:46;;;;;;;;;;;18.70;99.90;;;;;;7334135;19;110303;-86
2023/07/23 03:44:13;;;;;;;;;;;18.70;99.90;;;;;;7326418;19;112072;-86
2023/07/23 03:47:05;;;;;;;;;;;18.70;99.90;;;;;;7326567;19;112838;-86
2023/07/23 03:49:32;;;;;;;;;;;18.60;99.90;;;;;;7334395;19;109801;-86
2023/07/23 03:51:59;;;;;;;;;;;18.70;99.90;;;;;;7327425;19;109741;-86
2023/07/23 03:54:26;;;;;;;;;;;18.60;99.90;;;;;;7332067;19;109465;-86
2023/07/23 03:56:53;;;;;;;;;;;18.60;99.90;;;;;;7335363;19;110928;-86
2023/07/23 03:59:20;;;;;;;;;;;18.70;99.90;;;;;;7328991;19;110575;-86
2023/07/23 04:01:47;;;;;;;;;;;18.60;99.90;;;;;;7327006;19;109972;-85
2023/07/23 04:04:15;;;;;;;;;;;18.70;99.90;;;;;;7329269;19;110044;-86
2023/07/23 04:06:42;;;;;;;;;;;18.70;99.90;;;;;;7325654;19;111628;-86
2023/07/23 04:09:09;;;;;;;;;;;18.70;99.90;;;;;;7330080;19;108588;-85
2023/07/23 04:11:36;;;;;;;;;;;18.70;99.90;;;;;;7329843;19;108847;-86
2023/07/23 04:14:03;;;;;;;;;;;18.70;99.90;;;;;;7326251;19;113835;-87
2023/07/23 04:16:30;;;;;;;;;;;18.70;99.90;;;;;;7325366;19;109283;-86
2023/07/23 04:18:58;;;;;;;;;;;18.70;99.90;;;;;;7337908;19;108877;-86
2023/07/23 04:21:25;;;;;;;;;;;18.70;99.90;;;;;;7328525;19;109470;-86
2023/07/23 04:23:55;;;;;;;;;;;18.70;99.90;;;;;;7330324;19;109671;-86
2023/07/23 04:26:23;;;;;;;;;;;18.80;99.90;;;;;;7323063;19;111507;-87
2023/07/23 04:28:50;;;;;;;;;;;18.70;99.90;;;;;;7331353;19;110061;-86
2023/07/23 04:31:17;;;;;;;;;;;18.70;99.90;;;;;;7330002;19;108854;-86
2023/07/23 04:33:45;;;;;;;;;;;18.70;99.90;;;;;;7331372;19;110141;-86
2023/07/23 04:36:12;;;;;;;;;;;18.80;99.90;;;;;;7323127;19;111002;-85
2023/07/23 04:38:40;;;;;;;;;;;18.80;99.90;;;;;;7328784;19;110723;-87
2023/07/23 04:41:15;;;;;;;;;;;18.80;99.90;;;;;;7333741;19;110207;-86
2023/07/23 04:43:42;;;;;;;;;;;18.80;99.90;;;;;;7324038;19;111635;-86
2023/07/23 04:46:09;;;;;;;;;;;18.80;99.90;;;;;;7328638;19;110507;-86
2023/07/23 04:48:39;;;;;;;;;;;18.80;99.90;;;;;;7330070;19;109639;-87
2023/07/23 04:51:08;;;;;;;;;;;18.80;99.90;;;;;;7327085;19;109095;-86
2023/07/23 04:53:39;;;;;;;;;;;18.80;99.90;;;;;;7328201;19;109706;-85
2023/07/23 04:56:07;;;;;;;;;;;18.80;99.90;;;;;;7326293;19;108873;-87
2023/07/23 04:58:34;;;;;;;;;;;18.80;99.90;;;;;;7329892;19;109246;-86
2023/07/23 05:01:06;;;;;;;;;;;18.80;99.90;;;;;;7325319;19;110756;-87
2023/07/23 05:03:34;;;;;;;;;;;18.80;99.90;;;;;;7328906;19;110666;-87
2023/07/23 05:06:04;;;;;;;;;;;18.80;99.90;;;;;;7326996;19;110624;-86
2023/07/23 05:08:32;;;;;;;;;;;18.80;99.90;;;;;;7326148;19;110728;-87
2023/07/23 05:11:00;;;;;;;;;;;18.90;99.90;;;;;;7325685;19;109951;-86
2023/07/23 05:13:28;;;;;;;;;;;18.90;99.90;;;;;;7328232;19;110162;-87
2023/07/23 05:15:57;;;;;;;;;;;18.80;99.90;;;;;;7324320;19;109568;-87
2023/07/23 05:18:26;;;;;;;;;;;18.80;99.90;;;;;;7330576;19;109935;-87
2023/07/23 05:20:53;;;;;;;;;;;18.80;99.90;;;;;;7328671;19;110143;-86
2023/07/23 05:23:21;;;;;;;;;;;18.80;99.90;;;;;;7325459;19;110273;-87
2023/07/23 05:25:54;;;;;;;;;;;18.90;99.90;;;;;;7327931;19;110690;-87
2023/07/23 05:28:21;;;;;;;;;;;18.80;99.90;;;;;;7326509;19;109546;-87
2023/07/23 05:30:48;;;;;;;;;;;18.90;99.90;;;;;;7327715;19;108908;-87
2023/07/23 05:33:17;;;;;;;;;;;18.80;99.90;;;;;;7329747;19;109698;-87
2023/07/23 05:35:45;;;;;;;;;;;18.80;99.90;;;;;;7330147;19;109164;-86
2023/07/23 05:38:12;;;;;;;;;;;18.80;99.90;;;;;;7342806;19;109169;-87
2023/07/23 05:40:39;;;;;;;;;;;18.80;99.90;;;;;;7364720;19;109433;-86
2023/07/23 05:43:10;;;;;;;;;;;18.80;99.90;;;;;;7369883;19;109390;-87
2023/07/23 05:45:37;;;;;;;;;;;18.80;99.90;;;;;;7372632;19;108072;-86
2023/07/23 05:48:04;;;;;;;;;;;18.80;99.90;;;;;;7368941;19;108186;-87
2023/07/23 05:50:31;;;;;;;;;;;18.80;99.90;;;;;;7369707;19;108078;-86
2023/07/23 05:52:59;;;;;;;;;;;18.80;99.90;;;;;;7365552;19;110071;-87
2023/07/23 05:55:26;;;;;;;;;;;18.80;99.90;;;;;;7366178;19;108345;-88
2023/07/23 05:57:53;;;;;;;;;;;18.80;99.90;;;;;;7361596;19;111351;-88
2023/07/23 06:00:20;;;;;;;;;;;18.80;99.90;;;;;;7363303;19;110685;-88
2023/07/23 06:02:47;;;;;;;;;;;18.80;99.90;;;;;;7368330;19;108021;-89
2023/07/23 06:05:17;;;;;;;;;;;18.80;99.90;;;;;;7365030;19;108781;-88
2023/07/23 06:07:44;;;;;;;;;;;18.80;99.90;;;;;;7372688;19;109938;-88
2023/07/23 06:10:11;;;;;;;;;;;18.80;99.90;;;;;;7341799;19;110887;-79
2023/07/23 06:12:41;;;;;;;;;;;18.80;99.90;;;;;;7332921;19;110460;-78
2023/07/23 06:15:09;;;;;;;;;;;18.90;99.90;;;;;;7332804;19;108758;-78
2023/07/23 06:17:36;;;;;;;;;;;18.90;99.90;;;;;;7332093;19;109121;-78
2023/07/23 06:20:04;;;;;;;;;;;18.90;99.90;;;;;;7333507;19;110617;-78
2023/07/23 06:22:31;;;;;;;;;;;18.90;99.90;;;;;;7333827;19;109173;-78
2023/07/23 06:24:58;;;;;;;;;;;18.90;99.90;;;;;;7332604;19;110626;-78
2023/07/23 06:27:25;;;;;;;;;;;18.90;99.90;;;;;;7327940;19;110473;-78
2023/07/23 06:29:52;;;;;;;;;;;19.00;99.90;;;;;;7336273;19;108768;-78
2023/07/23 06:32:20;;;;;;;;;;;19.00;99.90;;;;;;7333762;19;109957;-77
2023/07/23 06:34:47;;;;;;;;;;;19.00;99.90;;;;;;7335162;19;108897;-78
2023/07/23 06:37:14;;;;;;;;;;;19.00;99.90;;;;;;7332101;19;108673;-78
2023/07/23 06:39:41;;;;;;;;;;;19.10;99.90;;;;;;7334724;19;110193;-78
2023/07/23 06:42:08;;;;;;;;;;;19.10;99.90;;;;;;7331778;19;109401;-78
2023/07/23 06:44:37;;;;;;;;;;;19.10;99.90;;;;;;7332685;19;108865;-79
2023/07/23 06:47:04;;;;;;;;;;;19.00;99.90;;;;;;7328497;19;109317;-78
2023/07/23 06:49:32;;;;;;;;;;;19.00;99.90;;;;;;7329734;19;109883;-79
2023/07/23 06:51:59;;;;;;;;;;;18.90;99.90;;;;;;7334308;19;108769;-78
2023/07/23 06:54:26;;;;;;;;;;;18.90;99.90;;;;;;7333109;19;108872;-78
2023/07/23 06:56:53;;;;;;;;;;;18.90;99.90;;;;;;7328304;19;110635;-78
2023/07/23 06:59:20;;;;;;;;;;;18.80;99.90;;;;;;7331801;19;110574;-78
2023/07/23 07:01:48;;;;;;;;;;;18.70;99.90;;;;;;7326163;19;108829;-78
2023/07/23 07:04:15;;;;;;;;;;;18.70;99.90;;;;;;7330980;19;109633;-78
2023/07/23 07:06:43;;;;;;;;;;;18.60;99.90;;;;;;7327519;19;110242;-78
2023/07/23 07:09:10;;;;;;;;;;;18.60;99.90;;;;;;7330757;19;110052;-78
2023/07/23 07:11:37;;;;;;;;;;;18.60;99.90;;;;;;7336830;19;108636;-78
2023/07/23 07:14:04;;;;;;;;;;;18.60;99.90;;;;;;7328880;19;110587;-78
2023/07/23 07:16:31;;;;;;;;;;;18.60;99.90;;;;;;7334668;19;109333;-78
2023/07/23 07:18:58;;;;;;;;;;;18.60;99.90;;;;;;7330412;19;110254;-78
2023/07/23 07:21:26;;;;;;;;;;;18.60;99.90;;;;;;7327634;19;111081;-78
2023/07/23 07:23:53;;;;;;;;;;;18.60;99.90;;;;;;7330160;19;110616;-78
2023/07/23 07:26:20;;;;;;;;;;;18.50;99.90;;;;;;7328102;19;109128;-78
2023/07/23 07:28:47;;;;;;;;;;;18.50;99.90;;;;;;7332027;19;109264;-78
2023/07/23 07:31:15;;;;;;;;;;;18.50;99.90;;;;;;7330362;19;109539;-78
2023/07/23 07:33:43;;;;;;;;;;;18.50;99.90;;;;;;7337394;19;110700;-77
2023/07/23 07:36:11;;;;;;;;;;;18.50;99.90;;;;;;7324587;19;110796;-77
2023/07/23 07:38:38;;;;;;;;;;;18.60;99.90;;;;;;7327423;19;110027;-76
2023/07/23 07:41:05;;;;;;;;;;;18.50;99.90;;;;;;7336272;19;109128;-75
2023/07/23 07:43:32;;;;;;;;;;;18.50;99.90;;;;;;7336091;19;109745;-74
2023/07/23 07:46:02;;;;;;;;;;;18.50;99.90;;;;;;7333860;19;109793;-74
2023/07/23 07:48:30;;;;;;;;;;;18.50;99.90;;;;;;7338144;19;108897;-75
2023/07/23 07:50:58;;;;;;;;;;;18.50;99.90;;;;;;7336681;19;109142;-74
2023/07/23 07:53:26;;;;;;;;;;;18.50;99.90;;;;;;7332692;19;109198;-75
2023/07/23 07:55:53;;;;;;;;;;;18.50;99.90;;;;;;7343984;19;108860;-74
2023/07/23 07:58:24;;;;;;;;;;;18.50;99.90;;;;;;7336614;19;110736;-75
2023/07/23 08:00:52;;;;;;;;;;;18.50;99.90;;;;;;7337647;19;109144;-74
2023/07/23 08:03:32;;;;;;;;;;;18.50;99.90;;;;;;7338897;19;109685;-75
2023/07/23 08:06:00;;;;;;;;;;;18.50;99.90;;;;;;7338700;19;110958;-74
2023/07/23 08:08:31;;;;;;;;;;;18.50;99.90;;;;;;7335605;19;109847;-75
2023/07/23 08:10:59;;;;;;;;;;;18.50;99.90;;;;;;7336718;19;109911;-74
2023/07/23 08:13:26;;;;;;;;;;;18.60;99.90;;;;;;7337654;19;110194;-74
2023/07/23 08:15:54;;;;;;;;;;;18.60;99.90;;;;;;7338021;19;108609;-73
2023/07/23 08:18:22;;;;;;;;;;;18.60;99.90;;;;;;7343550;19;109985;-74
2023/07/23 08:20:50;;;;;;;;;;;18.60;99.90;;;;;;7337428;19;108637;-74
2023/07/23 08:23:17;;;;;;;;;;;18.70;99.90;;;;;;7335432;19;111021;-74
2023/07/23 08:25:47;;;;;;;;;;;18.70;99.90;;;;;;7333486;19;109828;-75
2023/07/23 08:28:17;;;;;;;;;;;18.70;99.90;;;;;;7333253;19;109746;-74
2023/07/23 08:30:45;;;;;;;;;;;18.70;99.90;;;;;;7339994;19;108903;-74
2023/07/23 08:33:12;;;;;;;;;;;18.80;99.90;;;;;;7334759;19;110543;-74
2023/07/23 08:35:42;;;;;;;;;;;18.80;99.90;;;;;;7332137;19;109843;-74
2023/07/23 08:38:10;;;;;;;;;;;18.80;99.90;;;;;;7336226;19;108739;-74
2023/07/23 08:40:41;;;;;;;;;;;18.80;99.90;;;;;;7339748;19;110049;-74
2023/07/23 08:43:26;;;;;;;;;;;18.90;99.90;;;;;;7335329;19;108627;-74
2023/07/23 08:46:04;;;;;;;;;;;18.80;99.90;;;;;;7332873;19;110922;-74
2023/07/23 08:49:00;;;;;;;;;;;18.80;99.90;;;;;;7337228;19;108865;-74
2023/07/23 08:51:30;;;;;;;;;;;18.90;99.90;;;;;;7332576;19;111745;-74
2023/07/23 08:53:58;;;;;;;;;;;18.90;99.90;;;;;;7334585;19;110500;-74
2023/07/23 08:56:25;;;;;;;;;;;18.90;99.90;;;;;;7333378;19;109218;-64
2023/07/23 08:58:53;;;;;;;;;;;19.00;99.90;;;;;;7336367;19;109114;-65
2023/07/23 09:01:21;;;;;;;;;;;19.00;99.90;;;;;;7329207;19;110600;-65
2023/07/23 09:03:48;;;;;;;;;;;19.00;99.90;;;;;;7338195;19;109202;-64
2023/07/23 09:06:17;;;;;;;;;;;19.10;99.90;;;;;;7333919;19;109181;-65
2023/07/23 09:08:44;;;;;;;;;;;19.10;99.90;;;;;;7334743;19;108800;-65
2023/07/23 09:11:11;;;;;;;;;;;19.20;99.90;;;;;;7338699;19;108413;-64
2023/07/23 09:13:38;;;;;;;;;;;19.20;99.90;;;;;;7334410;19;110041;-65
2023/07/23 09:16:06;;;;;;;;;;;19.20;99.90;;;;;;7332195;19;108760;-64
2023/07/23 09:18:40;;;;;;;;;;;19.30;99.90;;;;;;7331509;19;110502;-65
2023/07/23 09:21:09;;;;;;;;;;;19.30;99.90;;;;;;7334400;19;110365;-65
2023/07/23 09:23:36;;;;;;;;;;;19.30;99.90;;;;;;7341152;19;109087;-64
2023/07/23 09:26:08;;;;;;;;;;;19.30;99.90;;;;;;7332319;19;109583;-65
2023/07/23 09:28:35;;;;;;;;;;;19.30;99.90;;;;;;7335207;19;108728;-65
2023/07/23 09:31:02;;;;;;;;;;;19.30;99.90;;;;;;7333819;19;109498;-65
2023/07/23 09:33:33;;;;;;;;;;;19.30;99.90;;;;;;7333102;19;110324;-65
2023/07/23 09:36:02;;;;;;;;;;;19.30;99.90;;;;;;7334326;19;108358;-64
2023/07/23 09:38:29;;;;;;;;;;;19.30;99.90;;;;;;7333611;19;109398;-65
2023/07/23 09:40:56;;;;;;;;;;;19.20;99.90;;;;;;7334977;19;109150;-65
2023/07/23 09:43:24;;;;;;;;;;;19.30;99.90;;;;;;7333967;19;108640;-65
2023/07/23 09:45:52;;;;;;;;;;;19.30;99.90;;;;;;7339239;19;109082;-64
2023/07/23 09:48:19;;;;;;;;;;;19.20;99.90;;;;;;7334285;19;109445;-65
2023/07/23 09:50:50;;;;;;;;;;;19.30;99.90;;;;;;7335272;19;110790;-64
2023/07/23 09:53:18;;;;;;;;;;;19.30;99.90;;;;;;7332181;19;109159;-65
2023/07/23 09:55:45;;;;;;;;;;;19.30;99.90;;;;;;7332811;19;109126;-65
2023/07/23 09:58:15;;;;;;;;;;;19.30;99.90;;;;;;7334410;19;108504;-68
2023/07/23 10:00:43;;;;;;;;;;;19.40;99.90;;;;;;7333641;19;111871;-65
2023/07/23 10:03:12;;;;;;;;;;;19.40;99.90;;;;;;7331499;19;108732;-65
2023/07/23 10:05:39;;;;;;;;;;;19.40;99.90;;;;;;7334611;19;109545;-65
2023/07/23 10:08:06;;;;;;;;;;;19.40;99.90;;;;;;7337377;19;109698;-65
2023/07/23 10:10:34;;;;;;;;;;;19.50;99.90;;;;;;7326291;19;110610;-66
2023/07/23 10:13:01;;;;;;;;;;;19.50;99.90;;;;;;7332835;19;109491;-65
2023/07/23 10:15:29;;;;;;;;;;;19.50;99.90;;;;;;7331422;19;109898;-65
2023/07/23 10:18:01;;;;;;;;;;;19.60;99.90;;;;;;7334595;19;109468;-65
2023/07/23 10:20:29;;;;;;;;;;;19.70;99.90;;;;;;7333337;19;110160;-65
2023/07/23 10:22:57;;;;;;;;;;;19.80;99.90;;;;;;7335058;19;109202;-65
2023/07/23 10:25:30;;;;;;;;;;;19.90;99.90;;;;;;7333441;19;108805;-65
2023/07/23 10:28:05;;;;;;;;;;;19.90;99.90;;;;;;7333272;19;109063;-65
2023/07/23 10:30:33;;;;;;;;;;;20.00;99.90;;;;;;7336138;19;109298;-65
2023/07/23 10:33:10;;;;;;;;;;;20.10;99.90;;;;;;7333314;19;109214;-66
2023/07/23 10:35:58;;;;;;;;;;;20.10;99.90;;;;;;7329692;19;108900;-65
2023/07/23 10:38:27;;;;;;;;;;;20.20;99.90;;;;;;7333546;19;109349;-65
2023/07/23 10:40:55;;;;;;;;;;;20.30;99.90;;;;;;7329811;19;110028;-67
2023/07/23 10:43:22;;;;;;;;;;;20.40;99.90;;;;;;7332394;19;113426;-66
2023/07/23 10:46:02;;;;;;;;;;;20.40;99.90;;;;;;7327631;19;108675;-65
2023/07/23 10:48:40;;;;;;;;;;;20.40;99.90;;;;;;7311896;19;110150;-66
2023/07/23 10:51:09;;;;;;;;;;;20.50;99.90;;;;;;7320288;19;108883;-64
2023/07/23 10:53:40;;;;;;;;;;;20.60;99.90;;;;;;7333747;19;109472;-65
2023/07/23 10:56:25;;;;;;;;;;;20.70;99.90;;;;;;7328427;19;112396;-65
2023/07/23 10:59:02;;;;;;;;;;;20.80;99.90;;;;;;7325943;19;110225;-65
2023/07/23 11:01:31;;;;;;;;;;;20.90;99.90;;;;;;7323709;19;110311;-65
2023/07/23 11:03:58;;;;;;;;;;;20.90;99.90;;;;;;7328945;19;109739;-65
2023/07/23 11:06:27;;;;;;;;;;;21.00;99.90;;;;;;7327709;19;110806;-65
2023/07/23 11:08:55;;;;;;;;;;;21.00;99.90;;;;;;7329962;19;110148;-65
2023/07/23 11:11:39;;;;;;;;;;;21.10;99.90;;;;;;7328553;19;108837;-65
2023/07/23 11:14:19;;;;;;;;;;;21.20;99.90;;;;;;7331831;19;109999;-63
2023/07/23 11:16:47;;;;;;;;;;;21.30;99.90;;;;;;7343955;19;109732;-64
2023/07/23 11:19:16;;;;;;;;;;;21.40;99.90;;;;;;7335421;19;109961;-64
2023/07/23 11:21:45;;;;;;;;;;;21.50;99.90;;;;;;7340513;19;110373;-65
2023/07/23 11:24:13;;;;;;;;;;;21.60;99.90;;;;;;7335825;19;108914;-65
2023/07/23 11:26:40;;;;;;;;;;;21.70;99.90;;;;;;7339809;19;108754;-65
2023/07/23 11:29:08;;;;;;;;;;;21.80;99.90;;;;;;7335781;19;110019;-66
2023/07/23 11:31:35;;;;;;;;;;;21.80;99.90;;;;;;7339291;19;109062;-65
2023/07/23 11:34:02;;;;;;;;;;;21.90;99.90;;;;;;7337942;19;109330;-65
2023/07/23 11:36:29;;;;;;;;;;;22.00;99.90;;;;;;7343157;19;110142;-66
2023/07/23 11:38:57;;;;;;;;;;;22.10;99.90;;;;;;7337734;19;110218;-65
2023/07/23 11:41:32;;;;;;;;;;;22.20;99.90;;;;;;7337689;19;110451;-65
2023/07/23 11:44:04;;;;;;;;;;;22.20;99.90;;;;;;7336604;19;109264;-65
2023/07/23 11:46:33;;;;;;;;;;;22.20;99.90;;;;;;7338386;19;108615;-65
2023/07/23 11:49:00;;;;;;;;;;;22.20;99.90;;;;;;7335840;19;109255;-65
2023/07/23 11:51:28;;;;;;;;;;;22.20;99.90;;;;;;7336511;19;109279;-65
2023/07/23 11:54:00;;;;;;;;;;;22.10;99.90;;;;;;7336111;19;108768;-65
2023/07/23 11:56:29;;;;;;;;;;;22.10;99.90;;;;;;7330252;19;110135;-67
2023/07/23 11:59:01;;;;;;;;;;;22.10;99.90;;;;;;7344084;19;109033;-65
2023/07/23 12:01:28;;;;;;;;;;;22.20;99.90;;;;;;7335231;19;112425;-66
2023/07/23 12:03:58;;;;;;;;;;;22.20;99.90;;;;;;7336737;19;108872;-65
2023/07/23 12:06:27;;;;;;;;;;;22.40;99.90;;;;;;7335305;19;108460;-65
2023/07/23 12:08:54;;;;;;;;;;;22.50;99.90;;;;;;7337847;19;109130;-65
2023/07/23 12:11:22;;;;;;;;;;;22.60;99.90;;;;;;7334887;19;109303;-65
2023/07/23 12:13:52;;;;;;;;;;;22.60;99.90;;;;;;7335730;19;109335;-66
2023/07/23 12:16:34;;;;;;;;;;;22.70;99.90;;;;;;7338078;19;109983;-65
2023/07/23 12:19:03;;;;;;;;;;;22.70;99.90;;;;;;7336775;19;108924;-66
2023/07/23 12:21:31;;;;;;;;;;;22.70;99.90;;;;;;7341782;19;109455;-65
2023/07/23 12:24:10;;;;;;;;;;;22.80;99.90;;;;;;7337610;19;108854;-66
2023/07/23 12:26:37;;;;;;;;;;;22.80;99.90;;;;;;7335265;19;109196;-66
2023/07/23 12:29:05;;;;;;;;;;;22.90;99.90;;;;;;7336111;19;112459;-68
2023/07/23 12:31:35;;;;;;;;;;;22.90;99.90;;;;;;7338231;19;109064;-65
2023/07/23 12:34:02;;;;;;;;;;;22.90;99.90;;;;;;7338198;19;109986;-66
2023/07/23 12:36:29;;;;;;;;;;;22.90;99.90;;;;;;7336248;19;109381;-66
2023/07/23 12:38:56;;;;;;;;;;;22.90;99.90;;;;;;7337148;19;110045;-66
2023/07/23 12:41:23;;;;;;;;;;;22.90;99.90;;;;;;7336534;19;109961;-66
2023/07/23 12:43:51;;;;;;;;;;;22.90;99.90;;;;;;7340692;19;109103;-66
2023/07/23 12:46:27;;;;;;;;;;;23.00;99.90;;;;;;7333493;19;108736;-66
2023/07/23 12:48:54;;;;;;;;;;;23.20;99.90;;;;;;7332063;19;110200;-66
2023/07/23 12:51:23;;;;;;;;;;;23.30;99.90;;;;;;7334419;19;109361;-66
2023/07/23 12:53:51;;;;;;;;;;;23.50;99.90;;;;;;7337910;19;109647;-65
2023/07/23 12:56:19;;;;;;;;;;;23.70;99.90;;;;;;7332869;19;109207;-66
2023/07/23 12:58:46;;;;;;;;;;;24.00;99.90;;;;;;7337893;19;108675;-68
2023/07/23 13:01:13;;;;;;;;;;;24.30;99.90;;;;;;7328436;19;110910;-66
2023/07/23 13:03:42;;;;;;;;;;;24.40;99.90;;;;;;7333910;19;109295;-66
2023/07/23 13:06:09;;;;;;;;;;;24.40;99.90;;;;;;7340662;19;109525;-67
2023/07/23 13:08:37;;;;;;;;;;;24.50;99.90;;;;;;7337235;19;109932;-66
2023/07/23 13:11:04;;;;;;;;;;;24.60;99.90;;;;;;7336873;19;108674;-73
2023/07/23 13:13:31;;;;;;;;;;;24.70;99.90;;;;;;7336164;19;109361;-73
2023/07/23 13:15:58;;;;;;;;;;;24.80;99.90;;;;;;7334792;19;109466;-73
2023/07/23 13:18:28;;;;;;;;;;;24.70;99.90;;;;;;7335437;19;108622;-67
2023/07/23 13:20:55;;;;;;;;;;;24.90;99.90;;;;;;7334739;19;108995;-75
2023/07/23 13:23:22;;;;;;;;;;;24.90;99.90;;;;;;7334562;19;110233;-74
2023/07/23 13:25:50;;;;;;;;;;;25.00;99.90;;;;;;7331480;19;108510;-74
2023/07/23 13:28:17;;;;;;;;;;;25.00;99.90;;;;;;7341773;19;109072;-72
2023/07/23 13:30:44;;;;;;;;;;;25.10;99.90;;;;;;7332893;19;108820;-74
2023/07/23 13:33:12;;;;;;;;;;;25.10;99.90;;;;;;7338913;19;110256;-66
2023/07/23 13:35:39;;;;;;;;;;;25.00;99.90;;;;;;7329767;19;109302;-68
2023/07/23 13:38:06;;;;;;;;;;;24.80;99.90;;;;;;7334922;19;108811;-67
2023/07/23 13:40:33;;;;;;;;;;;24.70;99.90;;;;;;7336273;19;110560;-66
2023/07/23 13:43:01;;;;;;;;;;;24.50;99.90;;;;;;7335309;19;110106;-66
2023/07/23 13:45:28;;;;;;;;;;;24.30;99.90;;;;;;7336639;19;108527;-68
2023/07/23 13:47:55;;;;;;;;;;;24.20;99.90;;;;;;7340504;19;109021;-66
2023/07/23 13:50:22;;;;;;;;;;;24.20;99.90;;;;;;7336362;19;109891;-66
2023/07/23 13:52:57;;;;;;;;;;;24.20;99.90;;;;;;7330432;19;109406;-66
2023/07/23 13:55:24;;;;;;;;;;;24.10;99.90;;;;;;7340562;19;110151;-84
2023/07/23 13:57:51;;;;;;;;;;;24.10;99.90;;;;;;7358739;19;108114;-84
2023/07/23 14:00:19;;;;;;;;;;;23.90;99.90;;;;;;7345402;19;109664;-84
2023/07/23 14:02:46;;;;;;;;;;;23.70;99.90;;;;;;7340442;19;110239;-84
2023/07/23 14:05:13;;;;;;;;;;;23.50;99.90;;;;;;7341406;19;108587;-85
2023/07/23 14:07:40;;;;;;;;;;;23.40;99.90;;;;;;7339081;19;109414;-83
2023/07/23 14:10:08;;;;;;;;;;;23.40;99.90;;;;;;7343221;19;110259;-83